createdAt,value
2018-04-24T00:00:25.564Z,96.84
2018-04-24T00:02:53.807Z,96.63
2018-04-24T00:05:22.853Z,96.55
2018-04-24T00:07:51.121Z,96.71
2018-04-24T00:10:20.866Z,96.88
2018-04-24T00:12:49.143Z,97.15
2018-04-24T00:15:17.382Z,97.16
2018-04-24T00:17:45.632Z,97.59
2018-04-24T00:20:13.873Z,97.68
2018-04-24T00:22:42.890Z,97.76
2018-04-24T00:25:11.890Z,98.05
2018-04-24T00:27:40.927Z,97.96
2018-04-24T00:30:09.923Z,97.64
2018-04-24T00:32:38.179Z,97.29
2018-04-24T00:35:06.418Z,97.72
2018-04-24T00:37:34.697Z,97.72
2018-04-24T00:40:02.951Z,97.87
2018-04-24T00:42:37.447Z,97.68
2018-04-24T00:45:05.705Z,97.85
2018-04-24T00:47:33.965Z,98.03
2018-04-24T00:50:03.352Z,98.24
2018-04-24T00:52:31.612Z,98.39
2018-04-24T00:54:59.860Z,98.13
2018-04-24T00:57:29.247Z,98.15
2018-04-24T00:59:57.664Z,98.40
2018-04-24T01:02:25.934Z,98.53
2018-04-24T01:04:54.175Z,98.39
2018-04-24T01:07:22.451Z,98.40
2018-04-24T01:09:51.503Z,98.45
2018-04-24T01:12:19.767Z,98.12
2018-04-24T01:14:48.019Z,98.71
2018-04-24T01:17:17.082Z,98.36
2018-04-24T01:19:45.311Z,98.34
2018-04-24T01:22:13.565Z,98.22
2018-04-24T01:24:41.813Z,98.02
2018-04-24T01:27:10.061Z,98.26
2018-04-24T01:29:38.323Z,98.28
2018-04-24T01:32:06.575Z,98.37
2018-04-24T01:34:34.820Z,98.47
2018-04-24T01:37:03.070Z,98.71
2018-04-24T01:39:31.328Z,98.82
2018-04-24T01:42:00.334Z,99.20
2018-04-24T01:44:30.131Z,99.23
2018-04-24T01:46:58.376Z,99.53
2018-04-24T01:49:26.661Z,99.84
2018-04-24T01:51:54.915Z,100.00
2018-04-24T01:54:23.971Z,99.88
2018-04-24T01:56:52.221Z,99.84
2018-04-24T01:59:21.244Z,99.44
2018-04-24T02:01:49.483Z,99.41
2018-04-24T02:04:17.746Z,99.88
2018-04-24T02:06:45.986Z,100.00
2018-04-24T02:09:15.011Z,100.00
2018-04-24T02:11:43.312Z,100.00
2018-04-24T02:14:11.566Z,100.00
2018-04-24T02:16:40.588Z,100.00
2018-04-24T02:19:09.007Z,100.00
2018-04-24T02:21:37.256Z,100.00
2018-04-24T02:24:06.328Z,100.00
2018-04-24T02:26:34.616Z,100.00
2018-04-24T02:29:02.875Z,100.00
2018-04-24T02:31:31.159Z,100.00
2018-04-24T02:33:59.424Z,100.00
2018-04-24T02:36:28.457Z,100.00
2018-04-24T02:38:56.717Z,100.00
2018-04-24T02:41:24.997Z,100.00
2018-04-24T02:43:53.212Z,100.00
2018-04-24T02:46:21.461Z,100.00
2018-04-24T02:48:49.763Z,100.00
2018-04-24T02:51:19.525Z,100.00
2018-04-24T02:53:47.766Z,100.00
2018-04-24T02:56:16.023Z,100.00
2018-04-24T02:58:44.278Z,100.00
2018-04-24T03:01:12.543Z,100.00
2018-04-24T03:03:40.784Z,100.00
2018-04-24T03:06:09.039Z,100.00
2018-04-24T03:08:38.042Z,100.00
2018-04-24T03:11:07.538Z,100.00
2018-04-24T03:13:35.795Z,100.00
2018-04-24T03:16:04.080Z,100.00
2018-04-24T03:18:32.336Z,100.00
2018-04-24T03:21:01.371Z,100.00
2018-04-24T03:23:29.613Z,100.00
2018-04-24T03:25:58.624Z,100.00
2018-04-24T03:28:27.627Z,100.00
2018-04-24T03:30:56.646Z,100.00
2018-04-24T03:33:24.930Z,100.00
2018-04-24T03:35:53.953Z,100.00
2018-04-24T03:38:22.207Z,100.00
2018-04-24T03:40:50.474Z,100.00
2018-04-24T03:43:18.701Z,100.00
2018-04-24T03:45:47.747Z,100.00
2018-04-24T03:48:15.991Z,99.92
2018-04-24T03:50:45.065Z,100.00
2018-04-24T03:53:13.311Z,100.00
2018-04-24T03:55:41.571Z,100.00
2018-04-24T03:58:10.603Z,100.00
2018-04-24T04:00:38.872Z,100.00
2018-04-24T04:03:07.879Z,100.00
2018-04-24T04:05:36.918Z,100.00
2018-04-24T04:08:05.991Z,100.00
2018-04-24T04:10:35.037Z,100.00
2018-04-24T04:13:03.301Z,100.00
2018-04-24T04:15:31.576Z,100.00
2018-04-24T04:18:17.496Z,100.00
2018-04-24T04:21:04.510Z,100.00
2018-04-24T04:23:51.335Z,100.00
2018-04-24T04:26:20.446Z,100.00
2018-04-24T04:28:49.479Z,100.00
2018-04-24T04:31:18.608Z,100.00
2018-04-24T04:33:46.905Z,100.00
2018-04-24T04:36:15.175Z,100.00
2018-04-24T04:38:44.187Z,100.00
2018-04-24T04:41:12.555Z,100.00
2018-04-24T04:43:40.839Z,100.00
2018-04-24T04:46:09.145Z,100.00
2018-04-24T04:48:37.384Z,100.00
2018-04-24T04:51:05.647Z,99.77
2018-04-24T04:53:33.904Z,100.00
2018-04-24T04:56:02.216Z,100.00
2018-04-24T04:58:30.415Z,100.00
2018-04-24T05:00:58.659Z,99.75
2018-04-24T05:03:28.425Z,99.34
2018-04-24T05:05:56.672Z,98.67
2018-04-24T05:08:25.716Z,98.49
2018-04-24T05:10:53.983Z,98.66
2018-04-24T05:13:22.262Z,98.93
2018-04-24T05:15:50.507Z,98.35
2018-04-24T05:18:18.764Z,98.16
2018-04-24T05:20:47.027Z,97.83
2018-04-24T05:23:15.298Z,97.94
2018-04-24T05:25:44.317Z,97.48
2018-04-24T05:28:13.335Z,96.88
2018-04-24T05:30:41.584Z,95.78
2018-04-24T05:33:09.839Z,95.09
2018-04-24T05:35:38.094Z,94.09
2018-04-24T05:38:07.102Z,92.09
2018-04-24T05:40:35.390Z,90.47
2018-04-24T05:43:04.427Z,88.45
2018-04-24T05:45:32.776Z,87.04
2018-04-24T05:48:01.815Z,85.26
2018-04-24T05:50:30.046Z,83.88
2018-04-24T05:52:58.357Z,80.97
2018-04-24T05:55:26.551Z,78.83
2018-04-24T05:57:55.649Z,78.99
2018-04-24T06:00:23.811Z,76.72
2018-04-24T06:02:52.077Z,76.25
2018-04-24T06:05:20.311Z,74.83
2018-04-24T06:07:48.565Z,73.43
2018-04-24T06:10:16.802Z,75.73
2018-04-24T06:12:45.834Z,76.31
2018-04-24T06:15:14.195Z,75.92
2018-04-24T06:17:42.315Z,75.06
2018-04-24T06:20:10.572Z,74.31
2018-04-24T06:22:38.832Z,74.84
2018-04-24T06:25:07.079Z,71.88
2018-04-24T06:27:35.363Z,70.77
2018-04-24T06:30:03.611Z,70.95
2018-04-24T06:32:31.907Z,71.25
2018-04-24T06:35:00.187Z,70.01
2018-04-24T06:37:28.431Z,68.76
2018-04-24T06:39:56.687Z,69.58
2018-04-24T06:42:25.696Z,69.74
2018-04-24T06:44:54.720Z,69.34
2018-04-24T06:47:22.973Z,69.89
2018-04-24T06:49:51.279Z,70.96
2018-04-24T06:52:20.281Z,69.67
2018-04-24T06:54:49.376Z,69.32
2018-04-24T06:57:17.627Z,69.48
2018-04-24T06:59:45.896Z,68.50
2018-04-24T07:02:14.154Z,67.62
2018-04-24T07:04:43.189Z,68.56
2018-04-24T07:07:11.438Z,67.58
2018-04-24T07:09:39.695Z,67.20
2018-04-24T07:12:07.943Z,66.28
2018-04-24T07:14:36.207Z,67.08
2018-04-24T07:17:05.968Z,64.16
2018-04-24T07:19:34.243Z,65.21
2018-04-24T07:22:02.504Z,65.59
2018-04-24T07:24:30.746Z,65.02
2018-04-24T07:26:58.974Z,62.71
2018-04-24T07:29:27.230Z,63.53
2018-04-24T07:31:55.479Z,61.60
2018-04-24T07:34:24.501Z,62.34
2018-04-24T07:36:52.749Z,60.56
2018-04-24T07:39:21.004Z,60.56
2018-04-24T07:41:49.243Z,60.05
2018-04-24T07:44:18.635Z,58.05
2018-04-24T07:46:46.947Z,55.98
2018-04-24T07:49:15.178Z,54.49
2018-04-24T07:51:43.503Z,55.95
2018-04-24T07:54:11.663Z,54.56
2018-04-24T07:56:39.915Z,53.72
2018-04-24T07:59:08.162Z,54.85
2018-04-24T08:01:36.520Z,55.59
2018-04-24T08:04:04.763Z,54.91
2018-04-24T08:06:33.035Z,57.47
2018-04-24T08:09:01.286Z,56.39
2018-04-24T08:11:29.556Z,56.01
2018-04-24T08:13:58.578Z,53.61
2018-04-24T08:16:26.827Z,54.00
2018-04-24T08:18:55.072Z,54.97
2018-04-24T08:21:23.310Z,53.85
2018-04-24T08:23:52.319Z,53.07
2018-04-24T08:26:20.641Z,53.49
2018-04-24T08:28:48.901Z,50.76
2018-04-24T08:31:17.940Z,49.94
2018-04-24T08:33:46.182Z,52.90
2018-04-24T08:36:14.440Z,49.67
2018-04-24T08:38:42.679Z,50.08
2018-04-24T08:41:11.731Z,49.15
2018-04-24T08:43:39.959Z,49.06
2018-04-24T08:46:08.210Z,46.27
2018-04-24T08:48:36.447Z,48.06
2018-04-24T08:51:04.710Z,50.72
2018-04-24T08:53:32.964Z,50.60
2018-04-24T08:56:01.222Z,52.05
2018-04-24T08:58:30.891Z,50.10
2018-04-24T09:00:59.275Z,49.16
2018-04-24T09:03:27.527Z,48.03
2018-04-24T09:05:56.655Z,51.31
2018-04-24T09:08:24.899Z,49.01
2018-04-24T09:10:54.649Z,49.49
2018-04-24T09:13:23.687Z,48.08
2018-04-24T09:15:51.925Z,50.73
2018-04-24T09:18:20.212Z,54.44
2018-04-24T09:20:48.449Z,52.74
2018-04-24T09:23:16.711Z,51.95
2018-04-24T09:25:44.959Z,53.50
2018-04-24T09:28:13.250Z,51.96
2018-04-24T09:30:42.256Z,53.08
2018-04-24T09:33:10.548Z,51.18
2018-04-24T09:35:38.769Z,50.84
2018-04-24T09:38:07.813Z,51.59
2018-04-24T09:40:37.021Z,50.37
2018-04-24T09:43:05.286Z,51.95
2018-04-24T09:45:34.316Z,49.29
2018-04-24T09:48:02.567Z,50.72
2018-04-24T09:50:30.826Z,50.16
2018-04-24T09:53:00.615Z,50.10
2018-04-24T09:55:28.861Z,48.85
2018-04-24T09:57:57.117Z,46.74
2018-04-24T10:00:30.796Z,44.46
2018-04-24T10:02:59.097Z,42.63
2018-04-24T10:05:27.405Z,42.08
2018-04-24T10:07:55.675Z,42.51
2018-04-24T10:10:23.920Z,43.95
2018-04-24T10:12:52.455Z,41.83
2018-04-24T10:15:20.771Z,44.19
2018-04-24T10:17:49.076Z,43.94
2018-04-24T10:20:17.311Z,42.68
2018-04-24T10:22:46.348Z,40.74
2018-04-24T10:25:14.588Z,42.59
2018-04-24T10:27:42.827Z,41.39
2018-04-24T10:30:11.067Z,41.13
2018-04-24T10:32:39.344Z,43.72
2018-04-24T10:35:07.640Z,43.26
2018-04-24T10:37:35.947Z,42.85
2018-04-24T10:40:04.175Z,40.77
2018-04-24T10:42:32.423Z,41.39
2018-04-24T10:45:00.674Z,39.99
2018-04-24T10:47:28.975Z,37.91
2018-04-24T10:49:57.260Z,38.56
2018-04-24T10:52:25.528Z,39.31
2018-04-24T10:54:53.957Z,39.01
2018-04-24T10:57:22.205Z,40.75
2018-04-24T10:59:50.478Z,39.87
2018-04-24T11:02:19.487Z,39.24
2018-04-24T11:04:47.747Z,38.54
2018-04-24T11:07:16.036Z,39.55
2018-04-24T11:09:45.059Z,39.52
2018-04-24T11:12:14.061Z,37.28
2018-04-24T11:14:43.100Z,37.97
2018-04-24T11:17:12.892Z,37.21
2018-04-24T11:19:41.138Z,38.86
2018-04-24T11:22:09.370Z,38.78
2018-04-24T11:24:38.403Z,37.21
2018-04-24T11:27:06.633Z,43.36
2018-04-24T11:29:34.926Z,44.97
2018-04-24T11:32:03.381Z,44.96
2018-04-24T11:34:31.681Z,43.42
2018-04-24T11:36:59.938Z,44.42
2018-04-24T11:39:28.203Z,45.71
2018-04-24T11:41:56.438Z,44.17
2018-04-24T11:44:25.590Z,42.17
2018-04-24T11:46:53.869Z,40.44
2018-04-24T11:49:22.137Z,41.80
2018-04-24T11:51:51.160Z,40.66
2018-04-24T11:54:20.176Z,44.10
2018-04-24T11:56:49.286Z,43.81
2018-04-24T11:59:18.319Z,44.06
2018-04-24T12:01:46.576Z,41.75
2018-04-24T12:04:15.582Z,41.26
2018-04-24T12:06:44.610Z,41.72
2018-04-24T12:09:12.851Z,42.88
2018-04-24T12:11:41.305Z,41.55
2018-04-24T12:14:09.569Z,41.66
2018-04-24T12:16:38.606Z,40.84
2018-04-24T12:19:07.565Z,41.64
2018-04-24T12:21:35.811Z,39.18
2018-04-24T12:24:04.067Z,39.98
2018-04-24T12:26:32.327Z,40.17
2018-04-24T12:29:00.626Z,42.07
2018-04-24T12:31:29.645Z,43.35
2018-04-24T12:33:57.906Z,46.32
2018-04-24T12:36:26.167Z,47.56
2018-04-24T12:38:54.484Z,46.76
2018-04-24T12:41:22.741Z,47.84
2018-04-24T12:43:50.990Z,47.55
2018-04-24T12:46:19.252Z,46.42
2018-04-24T12:48:47.487Z,45.47
2018-04-24T12:51:15.751Z,46.66
2018-04-24T12:53:44.761Z,46.27
2018-04-24T12:56:13.803Z,47.57
2018-04-24T12:58:42.055Z,49.13
2018-04-24T13:01:11.069Z,49.20
2018-04-24T13:03:39.316Z,48.04
2018-04-24T13:06:07.638Z,48.18
2018-04-24T13:08:36.668Z,48.07
2018-04-24T13:11:04.937Z,47.55
2018-04-24T13:13:33.996Z,45.51
2018-04-24T13:16:02.259Z,46.89
2018-04-24T13:18:30.514Z,47.17
2018-04-24T13:20:59.624Z,45.74
2018-04-24T13:23:27.885Z,44.64
2018-04-24T13:25:56.143Z,45.04
2018-04-24T13:28:24.387Z,44.20
2018-04-24T13:30:52.681Z,45.65
2018-04-24T13:33:21.686Z,44.31
2018-04-24T13:35:50.754Z,44.74
2018-04-24T13:38:19.064Z,46.24
2018-04-24T13:40:47.374Z,46.04
2018-04-24T13:43:15.661Z,45.16
2018-04-24T13:45:43.895Z,45.59
2018-04-24T13:48:12.166Z,45.89
2018-04-24T13:50:40.410Z,45.27
2018-04-24T13:53:08.799Z,46.30
2018-04-24T13:55:37.056Z,45.64
2018-04-24T13:58:05.333Z,47.17
2018-04-24T14:00:33.571Z,42.91
2018-04-24T14:03:01.822Z,45.00
2018-04-24T14:05:30.073Z,44.75
2018-04-24T14:07:59.095Z,44.10
2018-04-24T14:10:27.327Z,45.31
2018-04-24T14:12:55.610Z,44.10
2018-04-24T14:15:23.843Z,43.72
2018-04-24T14:17:54.610Z,41.38
2018-04-24T14:20:22.890Z,40.97
2018-04-24T14:22:51.915Z,41.15
2018-04-24T14:25:20.176Z,41.36
2018-04-24T14:27:49.287Z,42.56
2018-04-24T14:30:17.619Z,40.10
2018-04-24T14:32:45.876Z,39.92
2018-04-24T14:35:14.123Z,39.26
2018-04-24T14:37:42.376Z,38.25
2018-04-24T14:40:10.627Z,37.72
2018-04-24T14:42:39.732Z,37.46
2018-04-24T14:45:07.893Z,37.57
2018-04-24T14:47:36.165Z,37.31
2018-04-24T14:50:04.540Z,37.75
2018-04-24T14:52:32.710Z,38.64
2018-04-24T14:55:00.980Z,36.72
2018-04-24T14:57:30.000Z,38.40
2018-04-24T14:59:58.261Z,39.27
2018-04-24T15:02:27.280Z,37.76
2018-04-24T15:04:56.355Z,38.37
2018-04-24T15:07:24.681Z,38.03
2018-04-24T15:09:52.976Z,38.12
2018-04-24T15:12:21.235Z,37.56
2018-04-24T15:14:50.270Z,37.29
2018-04-24T15:17:19.283Z,37.50
2018-04-24T15:19:47.562Z,37.47
2018-04-24T15:22:16.573Z,37.46
2018-04-24T15:24:45.594Z,36.10
2018-04-24T15:27:13.842Z,38.02
2018-04-24T15:29:42.115Z,37.30
2018-04-24T15:32:10.371Z,37.92
2018-04-24T15:34:38.649Z,37.66
2018-04-24T15:37:06.905Z,36.73
2018-04-24T15:39:35.170Z,35.94
2018-04-24T15:42:03.411Z,35.38
2018-04-24T15:44:31.669Z,36.01
2018-04-24T15:46:59.931Z,37.99
2018-04-24T15:49:28.248Z,38.94
2018-04-24T15:51:56.423Z,35.92
2018-04-24T15:54:24.734Z,33.85
2018-04-24T15:56:52.976Z,33.87
2018-04-24T15:59:21.355Z,34.77
2018-04-24T16:01:49.596Z,34.05
2018-04-24T16:04:18.619Z,35.14
2018-04-24T16:06:46.863Z,33.78
2018-04-24T16:09:15.121Z,34.40
2018-04-24T16:11:43.367Z,34.66
2018-04-24T16:14:12.392Z,34.58
2018-04-24T16:16:40.633Z,34.80
2018-04-24T16:19:08.891Z,34.08
2018-04-24T16:21:37.130Z,34.08
2018-04-24T16:24:05.449Z,35.04
2018-04-24T16:26:33.644Z,35.69
2018-04-24T16:29:01.883Z,35.08
2018-04-24T16:31:30.148Z,35.46
2018-04-24T16:33:58.400Z,34.55
2018-04-24T16:36:27.474Z,35.10
2018-04-24T16:38:55.716Z,35.24
2018-04-24T16:41:24.042Z,34.91
2018-04-24T16:43:52.298Z,34.23
2018-04-24T16:46:20.562Z,35.74
2018-04-24T16:48:48.835Z,36.16
2018-04-24T16:51:18.265Z,36.34
2018-04-24T16:53:47.663Z,35.11
2018-04-24T16:56:16.010Z,35.32
2018-04-24T16:58:44.155Z,35.31
2018-04-24T17:01:13.280Z,35.06
2018-04-24T17:03:41.565Z,37.13
2018-04-24T17:06:10.667Z,39.30
2018-04-24T17:08:38.906Z,40.31
2018-04-24T17:11:08.059Z,41.96
2018-04-24T17:13:37.133Z,42.11
2018-04-24T17:16:05.390Z,42.05
2018-04-24T17:18:33.654Z,40.84
2018-04-24T17:21:02.676Z,41.15
2018-04-24T17:23:30.902Z,41.91
2018-04-24T17:25:59.167Z,42.81
2018-04-24T17:28:27.401Z,43.43
2018-04-24T17:30:55.750Z,45.00
2018-04-24T17:33:24.031Z,44.44
2018-04-24T17:35:52.327Z,45.06
2018-04-24T17:38:20.921Z,46.15
2018-04-24T17:40:49.247Z,45.69
2018-04-24T17:43:17.459Z,46.92
2018-04-24T17:45:46.488Z,47.36
2018-04-24T17:48:15.508Z,48.52
2018-04-24T17:50:43.742Z,48.04
2018-04-24T17:53:12.031Z,48.34
2018-04-24T17:55:41.835Z,49.65
2018-04-24T17:58:10.220Z,50.13
2018-04-24T18:00:38.520Z,50.56
2018-04-24T18:03:07.584Z,51.57
2018-04-24T18:05:35.832Z,51.59
2018-04-24T18:08:04.139Z,51.50
2018-04-24T18:10:33.172Z,52.08
2018-04-24T18:13:02.226Z,53.09
2018-04-24T18:15:30.515Z,53.11
2018-04-24T18:17:58.775Z,53.95
2018-04-24T18:20:27.013Z,54.43
2018-04-24T18:22:55.286Z,54.88
2018-04-24T18:25:24.327Z,55.03
2018-04-24T18:27:53.773Z,55.46
2018-04-24T18:30:22.055Z,56.64
2018-04-24T18:32:50.316Z,57.55
2018-04-24T18:35:19.331Z,58.23
2018-04-24T18:37:47.585Z,58.76
2018-04-24T18:40:15.839Z,59.08
2018-04-24T18:42:44.095Z,60.61
2018-04-24T18:45:13.120Z,61.24
2018-04-24T18:47:41.403Z,61.72
2018-04-24T18:50:09.710Z,62.17
2018-04-24T18:52:37.974Z,63.12
2018-04-24T18:55:06.992Z,63.64
2018-04-24T18:57:35.228Z,64.37
2018-04-24T19:00:03.619Z,64.96
2018-04-24T19:02:31.866Z,65.94
2018-04-24T19:05:00.227Z,66.15
2018-04-24T19:07:29.231Z,66.32
2018-04-24T19:09:58.847Z,66.75
2018-04-24T19:12:27.863Z,66.49
2018-04-24T19:14:57.291Z,66.75
2018-04-24T19:17:26.399Z,67.11
2018-04-24T19:19:55.443Z,67.75
2018-04-24T19:22:23.716Z,68.34
2018-04-24T19:24:57.619Z,68.40
2018-04-24T19:27:25.882Z,69.06
2018-04-24T19:29:54.176Z,69.48
2018-04-24T19:32:28.664Z,70.21
2018-04-24T19:34:56.940Z,70.98
2018-04-24T19:37:25.219Z,71.57
2018-04-24T19:39:59.119Z,71.80
2018-04-24T19:42:28.505Z,72.29
2018-04-24T19:44:57.535Z,73.00
2018-04-24T19:47:26.548Z,73.02
2018-04-24T19:50:01.854Z,73.50
2018-04-24T19:52:30.130Z,73.59
2018-04-24T19:55:03.913Z,74.24
2018-04-24T19:57:32.943Z,74.37
2018-04-24T20:00:01.198Z,74.77
2018-04-24T20:02:30.248Z,75.18
2018-04-24T20:04:59.278Z,74.90
2018-04-24T20:07:27.526Z,75.27
2018-04-24T20:09:56.574Z,74.80
2018-04-24T20:12:24.851Z,75.47
2018-04-24T20:14:53.104Z,76.29
2018-04-24T20:17:21.545Z,76.43
2018-04-24T20:19:49.823Z,77.36
2018-04-24T20:22:18.074Z,77.89
2018-04-24T20:24:47.468Z,79.63
2018-04-24T20:27:16.475Z,80.71
2018-04-24T20:29:44.771Z,79.94
2018-04-24T20:32:13.104Z,80.19
2018-04-24T20:34:41.368Z,79.68
2018-04-24T20:37:09.636Z,80.08
2018-04-24T20:39:38.647Z,79.75
2018-04-24T20:42:07.659Z,79.60
2018-04-24T20:44:36.675Z,80.17
2018-04-24T20:47:04.914Z,79.97
2018-04-24T20:49:33.161Z,80.29
2018-04-24T20:52:01.444Z,80.54
2018-04-24T20:54:29.749Z,80.49
2018-04-24T20:56:58.008Z,80.45
2018-04-24T20:59:27.018Z,80.12
2018-04-24T21:01:56.049Z,80.48
2018-04-24T21:04:24.336Z,80.15
2018-04-24T21:06:52.634Z,80.09
2018-04-24T21:09:21.308Z,79.75
2018-04-24T21:11:50.407Z,80.07
2018-04-24T21:14:19.416Z,80.14
2018-04-24T21:16:48.436Z,80.34
2018-04-24T21:19:17.557Z,80.82
2018-04-24T21:21:45.868Z,80.68
2018-04-24T21:24:14.107Z,80.81
2018-04-24T21:26:43.134Z,80.89
2018-04-24T21:29:11.387Z,81.35
2018-04-24T21:31:40.456Z,81.59
2018-04-24T21:34:08.799Z,81.90
2018-04-24T21:36:38.574Z,82.24
2018-04-24T21:39:06.816Z,82.33
2018-04-24T21:41:36.218Z,82.34
2018-04-24T21:44:04.453Z,82.83
2018-04-24T21:46:32.748Z,82.68
2018-04-24T21:49:00.996Z,83.16
2018-04-24T21:51:30.112Z,83.21
2018-04-24T21:53:59.104Z,83.65
2018-04-24T21:56:28.539Z,82.76
2018-04-24T21:58:56.924Z,83.95
2018-04-24T22:01:26.046Z,83.36
2018-04-24T22:03:54.356Z,82.82
2018-04-24T22:06:22.663Z,82.68
2018-04-24T22:08:50.900Z,81.67
2018-04-24T22:11:19.927Z,81.74
2018-04-24T22:13:48.236Z,81.97
2018-04-24T22:16:16.495Z,81.02
2018-04-24T22:18:45.527Z,80.55
2018-04-24T22:21:13.806Z,81.04
2018-04-24T22:23:42.066Z,80.78
2018-04-24T22:26:11.084Z,80.91
2018-04-24T22:28:40.162Z,81.62
2018-04-24T22:31:08.435Z,82.88
2018-04-24T22:33:36.869Z,83.84
2018-04-24T22:36:05.133Z,84.41
2018-04-24T22:38:33.493Z,84.48
2018-04-24T22:41:01.729Z,84.26
2018-04-24T22:43:30.749Z,84.05
2018-04-24T22:46:00.491Z,83.53
2018-04-24T22:48:28.754Z,85.20
2018-04-24T22:50:57.772Z,85.29
2018-04-24T22:53:26.819Z,85.42
2018-04-24T22:55:55.065Z,85.49
2018-04-24T22:58:24.120Z,85.87
2018-04-24T23:00:52.477Z,85.78
2018-04-24T23:03:22.116Z,85.75
2018-04-24T23:05:50.472Z,85.57
2018-04-24T23:08:19.486Z,85.85
2018-04-24T23:11:05.574Z,85.68
2018-04-24T23:13:51.483Z,85.97
2018-04-24T23:16:38.370Z,86.57
2018-04-24T23:19:24.554Z,86.33
2018-04-24T23:21:52.881Z,87.04
2018-04-24T23:24:21.153Z,87.22
2018-04-24T23:26:49.404Z,87.01
2018-04-24T23:29:18.492Z,86.80
2018-04-24T23:31:47.502Z,87.24
2018-04-24T23:34:15.783Z,87.75
2018-04-24T23:36:44.191Z,88.10
2018-04-24T23:39:13.313Z,87.65
2018-04-24T23:41:41.550Z,86.92
2018-04-24T23:44:09.881Z,86.28
2018-04-24T23:46:39.549Z,86.69
2018-04-24T23:49:07.825Z,85.23
2018-04-24T23:51:36.079Z,83.84
2018-04-24T23:54:05.117Z,82.05
2018-04-24T23:56:36.135Z,80.73
2018-04-24T23:59:05.157Z,79.21
